createdAt,value
2019-06-25T00:02:00.444Z,2.60
2019-06-25T00:04:29.738Z,2.13
2019-06-25T00:06:59.174Z,2.37
2019-06-25T00:09:28.557Z,2.30
2019-06-25T00:11:57.891Z,2.10
2019-06-25T00:14:27.279Z,2.63
2019-06-25T00:16:56.770Z,2.50
2019-06-25T00:19:26.153Z,2.33
2019-06-25T00:21:55.533Z,1.97
2019-06-25T00:24:24.893Z,2.00
2019-06-25T00:26:54.237Z,1.90
2019-06-25T00:29:23.666Z,2.50
2019-06-25T00:31:53.041Z,2.23
2019-06-25T00:34:22.353Z,1.90
2019-06-25T00:36:51.758Z,2.63
2019-06-25T00:39:21.153Z,2.00
2019-06-25T00:41:50.603Z,2.30
2019-06-25T00:44:19.973Z,2.00
2019-06-25T00:46:49.318Z,1.80
2019-06-25T00:49:18.718Z,2.37
2019-06-25T00:51:48.081Z,2.33
2019-06-25T00:54:17.416Z,2.40
2019-06-25T00:56:46.771Z,2.10
2019-06-25T00:59:16.076Z,2.20
2019-06-25T01:01:47.051Z,2.93
2019-06-25T01:04:16.446Z,2.00
2019-06-25T01:06:45.869Z,2.73
2019-06-25T01:09:15.180Z,2.53
2019-06-25T01:11:44.593Z,2.33
2019-06-25T01:14:13.911Z,2.57
2019-06-25T01:16:43.309Z,2.20
2019-06-25T01:19:12.717Z,2.90
2019-06-25T01:21:42.085Z,2.67
2019-06-25T01:24:11.414Z,2.93
2019-06-25T01:26:40.709Z,2.40
2019-06-25T01:29:10.038Z,2.67
2019-06-25T01:31:39.346Z,2.40
2019-06-25T01:34:08.761Z,2.30
2019-06-25T01:36:38.134Z,2.90
2019-06-25T01:39:07.501Z,2.60
2019-06-25T01:41:36.882Z,2.90
2019-06-25T01:44:06.219Z,2.33
2019-06-25T01:46:35.563Z,2.30
2019-06-25T01:49:04.952Z,2.70
2019-06-25T01:51:34.369Z,2.80
2019-06-25T01:54:03.735Z,2.57
2019-06-25T01:56:33.161Z,2.97
2019-06-25T01:59:02.525Z,2.50
2019-06-25T02:01:31.901Z,2.67
2019-06-25T02:04:03.065Z,2.03
2019-06-25T02:06:32.427Z,2.43
2019-06-25T02:09:03.005Z,2.23
2019-06-25T02:11:32.325Z,2.73
2019-06-25T02:14:01.705Z,2.73
2019-06-25T02:16:31.124Z,3.03
2019-06-25T02:19:00.484Z,2.40
2019-06-25T02:21:30.112Z,2.73
2019-06-25T02:23:59.547Z,2.93
2019-06-25T02:26:28.946Z,3.07
2019-06-25T02:28:58.302Z,2.27
2019-06-25T02:31:27.734Z,2.30
2019-06-25T02:33:57.156Z,2.60
2019-06-25T02:36:26.537Z,2.57
2019-06-25T02:38:55.958Z,2.33
2019-06-25T02:41:25.307Z,3.00
2019-06-25T02:43:54.722Z,3.10
2019-06-25T02:46:24.137Z,2.47
2019-06-25T02:48:53.558Z,2.30
2019-06-25T02:51:22.905Z,2.57
2019-06-25T02:53:52.263Z,3.07
2019-06-25T02:56:21.602Z,2.43
2019-06-25T02:58:51.025Z,2.90
2019-06-25T03:01:28.615Z,2.73
2019-06-25T03:03:51.481Z,2.57
2019-06-25T03:06:20.886Z,2.93
2019-06-25T03:08:50.426Z,2.80
2019-06-25T03:11:19.764Z,2.60
2019-06-25T03:13:49.098Z,3.10
2019-06-25T03:16:18.512Z,2.97
2019-06-25T03:18:47.912Z,2.87
2019-06-25T03:21:17.294Z,3.03
2019-06-25T03:23:46.597Z,3.30
2019-06-25T03:26:16.007Z,3.17
2019-06-25T03:28:45.396Z,2.60
2019-06-25T03:31:14.808Z,2.93
2019-06-25T03:33:44.207Z,2.63
2019-06-25T03:36:13.632Z,2.60
2019-06-25T03:38:42.969Z,2.33
2019-06-25T03:41:12.325Z,3.00
2019-06-25T03:43:41.668Z,3.20
2019-06-25T03:46:11.597Z,3.10
2019-06-25T03:48:40.957Z,3.10
2019-06-25T03:51:10.375Z,2.17
2019-06-25T03:53:39.741Z,3.13
2019-06-25T03:56:09.194Z,3.00
2019-06-25T03:58:38.585Z,3.13
2019-06-25T04:01:07.977Z,3.10
2019-06-25T04:03:37.354Z,3.13
2019-06-25T04:06:06.709Z,2.53
2019-06-25T04:08:36.033Z,2.60
2019-06-25T04:11:05.341Z,2.47
2019-06-25T04:13:34.796Z,1.87
2019-06-25T04:16:04.283Z,3.30
2019-06-25T04:18:33.721Z,2.57
2019-06-25T04:21:03.041Z,3.13
2019-06-25T04:23:32.420Z,2.80
2019-06-25T04:26:03.009Z,2.93
2019-06-25T04:28:32.390Z,3.10
2019-06-25T04:31:03.558Z,3.03
2019-06-25T04:33:33.429Z,2.23
2019-06-25T04:36:02.720Z,2.70
2019-06-25T04:38:32.054Z,2.73
2019-06-25T04:41:01.407Z,3.23
2019-06-25T04:43:30.757Z,2.43
2019-06-25T04:46:00.165Z,2.70
2019-06-25T04:48:29.578Z,3.00
2019-06-25T04:50:58.973Z,2.93
2019-06-25T04:53:28.407Z,3.47
2019-06-25T04:55:57.704Z,2.90
2019-06-25T04:58:27.060Z,2.83
2019-06-25T05:00:56.443Z,2.53
2019-06-25T05:03:25.744Z,3.17
2019-06-25T05:05:55.175Z,2.93
2019-06-25T05:08:24.546Z,3.37
2019-06-25T05:10:53.852Z,2.87
2019-06-25T05:13:23.206Z,3.77
2019-06-25T05:15:53.217Z,2.80
2019-06-25T05:18:24.307Z,3.43
2019-06-25T05:20:53.683Z,3.23
2019-06-25T05:23:23.606Z,3.33
2019-06-25T05:25:53.504Z,3.63
2019-06-25T05:28:22.941Z,3.20
2019-06-25T05:30:52.318Z,2.60
2019-06-25T05:33:21.760Z,3.10
2019-06-25T05:35:57.266Z,4.00
2019-06-25T05:38:26.636Z,4.00
2019-06-25T05:40:56.087Z,3.33
2019-06-25T05:43:25.472Z,2.60
2019-06-25T05:45:54.915Z,3.23
2019-06-25T05:48:24.318Z,2.77
2019-06-25T05:50:53.736Z,2.70
2019-06-25T05:53:23.111Z,3.00
2019-06-25T05:55:52.519Z,2.60
2019-06-25T05:58:22.695Z,3.10
2019-06-25T06:00:52.123Z,2.30
2019-06-25T06:03:21.528Z,3.40
2019-06-25T06:05:50.871Z,2.93
2019-06-25T06:08:20.274Z,3.57
2019-06-25T06:10:49.784Z,3.07
2019-06-25T06:13:19.195Z,3.27
2019-06-25T06:15:48.624Z,3.30
2019-06-25T06:18:38.590Z,3.10
2019-06-25T06:21:08.418Z,3.03
2019-06-25T06:23:39.487Z,3.50
2019-06-25T06:26:17.049Z,3.67
2019-06-25T06:28:40.194Z,3.43
2019-06-25T06:31:17.091Z,3.20
2019-06-25T06:33:40.630Z,4.17
2019-06-25T06:36:10.099Z,2.87
2019-06-25T06:38:39.433Z,3.80
2019-06-25T06:41:08.960Z,3.30
2019-06-25T06:43:38.372Z,3.63
2019-06-25T06:46:07.810Z,3.80
2019-06-25T06:48:37.143Z,3.30
2019-06-25T06:51:06.540Z,4.23
2019-06-25T06:53:35.962Z,5.80
2019-06-25T06:56:05.373Z,3.80
2019-06-25T06:58:34.978Z,3.33
2019-06-25T07:01:04.558Z,3.63
2019-06-25T07:03:33.969Z,4.23
2019-06-25T07:06:04.026Z,3.90
2019-06-25T07:08:33.494Z,4.60
2019-06-25T07:11:06.114Z,3.33
2019-06-25T07:13:35.714Z,4.80
2019-06-25T07:16:05.122Z,3.17
2019-06-25T07:18:34.489Z,4.00
2019-06-25T07:21:03.914Z,3.80
2019-06-25T07:23:33.301Z,3.73
2019-06-25T07:26:03.747Z,3.07
2019-06-25T07:28:34.071Z,3.00
2019-06-25T07:31:03.865Z,2.77
2019-06-25T07:33:34.123Z,3.63
2019-06-25T07:36:03.668Z,3.42
2019-06-25T07:38:33.035Z,4.20
2019-06-25T07:41:02.871Z,3.77
2019-06-25T07:43:32.347Z,3.42
2019-06-25T07:46:03.068Z,3.72
2019-06-25T07:48:32.465Z,4.28
2019-06-25T07:51:01.846Z,3.67
2019-06-25T07:53:31.179Z,3.37
2019-06-25T07:56:00.472Z,4.15
2019-06-25T07:58:29.779Z,3.45
2019-06-25T08:00:59.089Z,3.90
2019-06-25T08:03:29.163Z,3.77
2019-06-25T08:05:58.626Z,3.80
2019-06-25T08:08:28.017Z,4.17
2019-06-25T08:10:57.401Z,4.53
2019-06-25T08:13:26.793Z,3.62
2019-06-25T08:15:56.096Z,3.50
2019-06-25T08:18:25.494Z,3.52
2019-06-25T08:20:54.909Z,3.85
2019-06-25T08:23:24.273Z,3.75
2019-06-25T08:25:53.616Z,3.85
2019-06-25T08:28:22.992Z,3.67
2019-06-25T08:30:52.419Z,4.28
2019-06-25T08:33:21.963Z,4.20
2019-06-25T08:35:51.379Z,4.03
2019-06-25T08:38:20.743Z,4.45
2019-06-25T08:40:50.282Z,4.10
2019-06-25T08:43:19.986Z,3.92
2019-06-25T08:45:49.407Z,4.35
2019-06-25T08:48:18.729Z,3.83
2019-06-25T08:50:48.079Z,4.08
2019-06-25T08:53:17.474Z,3.95
2019-06-25T08:55:46.790Z,4.30
2019-06-25T08:58:16.133Z,3.77
2019-06-25T09:00:45.435Z,4.30
2019-06-25T09:03:14.749Z,3.70
2019-06-25T09:05:44.269Z,3.87
2019-06-25T09:08:13.582Z,3.67
2019-06-25T09:10:43.031Z,3.52
2019-06-25T09:13:12.472Z,3.83
2019-06-25T09:15:41.873Z,3.62
2019-06-25T09:18:11.309Z,3.92
2019-06-25T09:20:41.288Z,3.80
2019-06-25T09:23:10.683Z,3.70
2019-06-25T09:25:40.094Z,4.15
2019-06-25T09:28:09.499Z,3.60
2019-06-25T09:30:38.991Z,3.02
2019-06-25T09:33:08.409Z,3.40
2019-06-25T09:35:37.841Z,2.87
2019-06-25T09:38:07.277Z,3.17
2019-06-25T09:40:34.970Z,2.92
2019-06-25T09:43:02.791Z,2.95
2019-06-25T09:45:34.629Z,3.67
2019-06-25T09:48:06.143Z,3.65
2019-06-25T09:50:35.738Z,3.27
2019-06-25T09:53:05.570Z,3.70
2019-06-25T09:55:35.110Z,3.37
2019-06-25T09:58:04.921Z,3.45
2019-06-25T10:00:44.351Z,3.25
2019-06-25T10:03:13.831Z,2.90
2019-06-25T10:05:43.196Z,3.10
2019-06-25T10:08:12.523Z,3.33
2019-06-25T10:10:41.861Z,2.60
2019-06-25T10:13:11.257Z,2.70
2019-06-25T10:15:40.664Z,2.40
2019-06-25T10:18:10.114Z,2.62
2019-06-25T10:20:39.532Z,2.87
2019-06-25T10:23:08.942Z,3.00
2019-06-25T10:25:38.572Z,2.98
2019-06-25T10:28:08.048Z,2.80
2019-06-25T10:30:56.581Z,2.20
2019-06-25T10:33:26.079Z,2.42
2019-06-25T10:35:55.464Z,2.50
2019-06-25T10:38:24.910Z,2.75
2019-06-25T10:40:54.313Z,2.95
2019-06-25T10:43:23.671Z,3.35
2019-06-25T10:45:53.091Z,3.00
2019-06-25T10:48:26.296Z,2.95
2019-06-25T10:50:53.554Z,2.98
2019-06-25T10:53:22.955Z,2.90
2019-06-25T10:55:52.297Z,3.30
2019-06-25T10:58:21.701Z,3.12
2019-06-25T11:00:53.511Z,3.40
2019-06-25T11:03:22.959Z,2.58
2019-06-25T11:06:04.366Z,2.95
2019-06-25T11:08:23.446Z,2.50
2019-06-25T11:10:52.787Z,3.40
2019-06-25T11:13:22.221Z,2.60
2019-06-25T11:15:51.647Z,3.42
2019-06-25T11:18:21.081Z,2.83
2019-06-25T11:20:50.503Z,3.30
2019-06-25T11:23:19.920Z,3.17
2019-06-25T11:26:09.462Z,3.30
2019-06-25T11:28:20.424Z,3.00
2019-06-25T11:30:49.888Z,3.08
2019-06-25T11:33:19.286Z,3.17
2019-06-25T11:35:48.661Z,3.02
2019-06-25T11:38:18.004Z,3.25
2019-06-25T11:40:47.335Z,2.80
2019-06-25T11:43:16.761Z,3.05
2019-06-25T11:45:46.132Z,3.15
2019-06-25T11:48:15.965Z,3.52
2019-06-25T11:50:45.345Z,3.00
2019-06-25T11:53:14.694Z,3.02
2019-06-25T11:55:44.077Z,2.85
2019-06-25T11:58:13.434Z,3.00
2019-06-25T12:00:42.817Z,3.35
2019-06-25T12:03:12.214Z,3.15
2019-06-25T12:05:41.658Z,2.92
2019-06-25T12:08:11.024Z,3.02
2019-06-25T12:10:40.966Z,3.20
2019-06-25T12:13:10.383Z,3.25
2019-06-25T12:15:39.803Z,3.60
2019-06-25T12:18:09.183Z,2.67
2019-06-25T12:20:38.604Z,2.85
2019-06-25T12:23:08.020Z,3.15
2019-06-25T12:25:37.442Z,2.98
2019-06-25T12:28:06.782Z,3.50
2019-06-25T12:30:36.169Z,2.95
2019-06-25T12:33:05.641Z,2.92
2019-06-25T12:35:35.172Z,3.25
2019-06-25T12:38:04.478Z,3.58
2019-06-25T12:40:33.908Z,3.20
2019-06-25T12:43:03.224Z,3.83
2019-06-25T12:45:33.434Z,3.35
2019-06-25T12:48:03.111Z,3.40
2019-06-25T12:50:32.421Z,3.37
2019-06-25T12:53:01.873Z,3.75
2019-06-25T12:55:31.277Z,3.55
2019-06-25T12:58:00.672Z,3.50
2019-06-25T13:00:30.054Z,3.58
2019-06-25T13:02:59.447Z,3.27
2019-06-25T13:05:28.912Z,3.47
2019-06-25T13:07:58.332Z,3.87
2019-06-25T13:10:43.150Z,3.90
2019-06-25T13:12:58.789Z,4.30
2019-06-25T13:15:28.282Z,3.75
2019-06-25T13:17:57.746Z,3.45
2019-06-25T13:20:27.466Z,3.72
2019-06-25T13:22:56.826Z,3.87
2019-06-25T13:25:26.223Z,3.45
2019-06-25T13:27:55.680Z,3.33
2019-06-25T13:30:25.035Z,3.80
2019-06-25T13:32:54.871Z,3.33
2019-06-25T13:35:24.354Z,3.60
2019-06-25T13:37:53.850Z,4.12
2019-06-25T13:40:23.447Z,3.85
2019-06-25T13:42:52.865Z,4.47
2019-06-25T13:45:22.256Z,3.70
2019-06-25T13:47:51.659Z,3.95
2019-06-25T13:50:21.130Z,3.45
2019-06-25T13:52:50.577Z,3.45
2019-06-25T13:55:20.390Z,3.80
2019-06-25T13:57:50.135Z,3.98
2019-06-25T14:00:20.500Z,3.65
2019-06-25T14:02:51.206Z,3.98
2019-06-25T14:05:21.054Z,3.92
2019-06-25T14:07:59.030Z,3.72
2019-06-25T14:10:22.082Z,3.55
2019-06-25T14:12:51.588Z,4.37
2019-06-25T14:15:21.015Z,3.98
2019-06-25T14:17:50.424Z,4.20
2019-06-25T14:20:19.854Z,3.65
2019-06-25T14:22:49.241Z,3.83
2019-06-25T14:25:18.659Z,3.90
2019-06-25T14:27:48.046Z,3.77
2019-06-25T14:30:19.048Z,4.22
2019-06-25T14:32:48.539Z,4.05
2019-06-25T14:35:17.921Z,3.67
2019-06-25T14:37:47.263Z,3.55
2019-06-25T14:40:16.800Z,3.50
2019-06-25T14:42:46.197Z,3.47
2019-06-25T14:45:17.317Z,3.65
2019-06-25T14:47:46.749Z,3.77
2019-06-25T14:50:16.978Z,3.90
2019-06-25T14:52:46.377Z,4.33
2019-06-25T14:55:16.733Z,4.12
2019-06-25T14:57:46.092Z,3.70
2019-06-25T15:00:16.026Z,3.60
2019-06-25T15:02:45.366Z,3.42
2019-06-25T15:05:16.576Z,3.80
2019-06-25T15:07:46.018Z,3.62
2019-06-25T15:10:15.577Z,4.20
2019-06-25T15:12:45.042Z,4.55
2019-06-25T15:15:14.972Z,3.50
2019-06-25T15:17:44.382Z,3.77
2019-06-25T15:20:14.584Z,3.87
2019-06-25T15:22:43.941Z,3.70
2019-06-25T15:25:13.623Z,3.20
2019-06-25T15:27:43.004Z,4.10
2019-06-25T15:30:14.947Z,3.95
2019-06-25T15:32:44.294Z,3.58
2019-06-25T15:35:13.639Z,3.50
2019-06-25T15:37:43.259Z,3.83
2019-06-25T15:40:12.905Z,3.70
2019-06-25T15:42:42.328Z,4.00
2019-06-25T15:45:11.742Z,4.22
2019-06-25T15:47:41.141Z,4.20
2019-06-25T15:50:11.008Z,4.03
2019-06-25T15:52:40.399Z,3.80
2019-06-25T15:55:10.586Z,3.40
2019-06-25T15:57:39.976Z,3.55
2019-06-25T16:00:09.417Z,3.92
2019-06-25T16:02:39.558Z,3.33
2019-06-25T16:05:09.948Z,3.42
2019-06-25T16:07:39.319Z,3.35
2019-06-25T16:10:09.828Z,3.47
2019-06-25T16:12:39.241Z,3.62
2019-06-25T16:15:09.212Z,3.55
2019-06-25T16:17:38.691Z,3.58
2019-06-25T16:20:08.646Z,3.42
2019-06-25T16:22:38.079Z,4.03
2019-06-25T16:25:08.861Z,3.15
2019-06-25T16:27:38.202Z,3.90
2019-06-25T16:30:07.894Z,4.35
2019-06-25T16:32:37.364Z,3.75
2019-06-25T16:35:06.902Z,3.55
2019-06-25T16:37:36.259Z,3.50
2019-06-25T16:40:08.669Z,3.20
2019-06-25T16:42:38.084Z,3.20
2019-06-25T16:45:07.946Z,4.47
2019-06-25T16:47:37.410Z,3.70
2019-06-25T16:50:06.953Z,4.08
2019-06-25T16:52:36.342Z,3.52
2019-06-25T16:55:07.562Z,3.45
2019-06-25T16:57:36.962Z,3.47
2019-06-25T17:00:06.383Z,4.08
2019-06-25T17:02:53.061Z,4.47
2019-06-25T17:05:07.198Z,3.65
2019-06-25T17:07:36.622Z,3.45
2019-06-25T17:10:07.241Z,4.35
2019-06-25T17:12:36.697Z,4.00
2019-06-25T17:15:06.552Z,4.28
2019-06-25T17:17:35.853Z,3.90
2019-06-25T17:20:05.585Z,4.03
2019-06-25T17:22:35.011Z,3.80
2019-06-25T17:25:04.424Z,3.60
2019-06-25T17:27:48.768Z,4.03
2019-06-25T17:30:05.059Z,3.90
2019-06-25T17:32:34.385Z,3.95
2019-06-25T17:35:03.783Z,3.72
2019-06-25T17:37:33.224Z,4.10
2019-06-25T17:40:02.546Z,4.30
2019-06-25T17:42:34.786Z,4.15
2019-06-25T17:45:02.958Z,4.03
2019-06-25T17:47:32.353Z,3.87
2019-06-25T17:50:01.680Z,4.05
2019-06-25T17:52:31.100Z,4.30
2019-06-25T17:55:00.522Z,4.42
2019-06-25T17:57:29.974Z,3.58
2019-06-25T17:59:59.418Z,4.10
2019-06-25T18:02:28.945Z,3.77
2019-06-25T18:04:58.446Z,3.67
2019-06-25T18:07:27.825Z,4.42
2019-06-25T18:10:07.091Z,3.70
2019-06-25T18:12:28.811Z,4.10
2019-06-25T18:14:58.351Z,3.95
2019-06-25T18:17:27.780Z,4.17
2019-06-25T18:19:57.173Z,3.92
2019-06-25T18:22:26.558Z,4.30
2019-06-25T18:24:55.900Z,3.98
2019-06-25T18:27:25.298Z,3.75
2019-06-25T18:29:54.663Z,4.15
2019-06-25T18:32:24.423Z,3.87
2019-06-25T18:34:55.230Z,4.35
2019-06-25T18:37:24.600Z,4.42
2019-06-25T18:39:54.023Z,4.12
2019-06-25T18:42:23.442Z,3.67
2019-06-25T18:45:03.837Z,3.92
2019-06-25T18:47:23.934Z,3.72
2019-06-25T18:49:53.313Z,3.33
2019-06-25T18:52:22.762Z,4.22
2019-06-25T18:54:52.169Z,3.87
2019-06-25T18:57:21.623Z,4.47
2019-06-25T18:59:50.966Z,8.85
2019-06-25T19:02:20.415Z,5.47
2019-06-25T19:04:49.814Z,5.25
2019-06-25T19:07:19.237Z,4.65
2019-06-25T19:09:48.663Z,4.40
2019-06-25T19:12:18.061Z,3.93
2019-06-25T19:14:47.419Z,4.03
2019-06-25T19:17:16.752Z,3.80
2019-06-25T19:19:46.239Z,3.58
2019-06-25T19:22:16.159Z,3.87
2019-06-25T19:24:45.554Z,4.60
2019-06-25T19:27:14.945Z,4.17
2019-06-25T19:29:44.352Z,4.65
2019-06-25T19:32:13.795Z,5.60
2019-06-25T19:34:43.327Z,5.95
2019-06-25T19:37:12.751Z,4.92
2019-06-25T19:39:42.153Z,6.70
2019-06-25T19:42:11.527Z,5.37
2019-06-25T19:44:40.942Z,4.35
2019-06-25T19:47:10.504Z,4.72
2019-06-25T19:49:39.873Z,5.50
2019-06-25T19:52:09.272Z,5.97
2019-06-25T19:54:38.717Z,10.48
2019-06-25T19:57:08.148Z,6.05
2019-06-25T19:59:37.607Z,6.03
2019-06-25T20:02:07.580Z,5.35
2019-06-25T20:04:36.967Z,3.97
2019-06-25T20:07:06.446Z,3.67
2019-06-25T20:09:35.823Z,3.63
2019-06-25T20:12:07.688Z,3.90
2019-06-25T20:14:37.079Z,4.30
2019-06-25T20:17:06.523Z,3.63
2019-06-25T20:19:35.937Z,3.73
2019-06-25T20:22:05.343Z,3.60
2019-06-25T20:24:34.772Z,3.90
2019-06-25T20:27:04.152Z,4.50
2019-06-25T20:29:34.081Z,4.20
2019-06-25T20:32:03.424Z,4.73
2019-06-25T20:34:32.852Z,4.43
2019-06-25T20:37:02.999Z,3.50
2019-06-25T20:39:32.466Z,4.27
2019-06-25T20:42:03.493Z,4.13
2019-06-25T20:44:32.910Z,4.00
2019-06-25T20:47:02.226Z,4.28
2019-06-25T20:49:31.667Z,3.87
2019-06-25T20:52:03.530Z,4.33
2019-06-25T20:54:32.950Z,3.57
2019-06-25T20:57:03.315Z,3.97
2019-06-25T20:59:32.626Z,3.90
2019-06-25T21:02:03.196Z,4.30
2019-06-25T21:04:32.627Z,3.60
2019-06-25T21:07:07.857Z,3.93
2019-06-25T21:09:37.254Z,4.23
2019-06-25T21:12:06.650Z,3.77
2019-06-25T21:14:36.023Z,3.83
2019-06-25T21:17:05.450Z,3.90
2019-06-25T21:19:42.840Z,4.27
2019-06-25T21:22:05.900Z,4.00
2019-06-25T21:24:35.301Z,4.30
2019-06-25T21:27:04.716Z,3.87
2019-06-25T21:29:34.130Z,3.90
2019-06-25T21:32:03.432Z,3.40
2019-06-25T21:34:32.875Z,4.03
2019-06-25T21:37:02.266Z,3.80
2019-06-25T21:39:31.691Z,3.37
2019-06-25T21:42:05.134Z,3.73
2019-06-25T21:44:32.163Z,3.90
2019-06-25T21:47:06.864Z,4.60
2019-06-25T21:49:32.645Z,4.33
2019-06-25T21:52:02.022Z,4.03
2019-06-25T21:54:31.461Z,4.60
2019-06-25T21:57:00.850Z,3.50
2019-06-25T21:59:30.259Z,3.23
2019-06-25T22:02:03.060Z,4.27
2019-06-25T22:04:32.419Z,4.70
2019-06-25T22:07:03.047Z,4.00
2019-06-25T22:09:32.433Z,3.77
2019-06-25T22:12:02.997Z,3.07
2019-06-25T22:14:32.440Z,3.60
2019-06-25T22:17:03.228Z,4.13
2019-06-25T22:19:32.659Z,4.13
2019-06-25T22:22:15.824Z,3.73
2019-06-25T22:24:33.966Z,3.70
2019-06-25T22:27:03.332Z,3.87
2019-06-25T22:29:32.774Z,3.90
2019-06-25T22:32:03.132Z,4.37
2019-06-25T22:34:32.539Z,4.17
2019-06-25T22:37:03.574Z,3.70
2019-06-25T22:39:32.899Z,4.47
2019-06-25T22:42:04.030Z,3.80
2019-06-25T22:44:33.371Z,3.73
2019-06-25T22:47:02.770Z,3.57
2019-06-25T22:49:32.105Z,4.10
2019-06-25T22:52:02.962Z,4.57
2019-06-25T22:54:32.339Z,3.60
2019-06-25T22:57:03.092Z,4.03
2019-06-25T22:59:32.480Z,3.97
2019-06-25T23:02:01.875Z,4.40
2019-06-25T23:04:31.287Z,3.57
2019-06-25T23:07:00.696Z,3.27
2019-06-25T23:09:30.172Z,4.00
2019-06-25T23:11:59.580Z,3.97
2019-06-25T23:14:29.034Z,3.83
2019-06-25T23:16:58.433Z,3.60
2019-06-25T23:19:27.805Z,4.33
2019-06-25T23:21:57.259Z,3.87
2019-06-25T23:24:26.638Z,4.03
2019-06-25T23:26:56.002Z,3.43
2019-06-25T23:29:25.424Z,4.00
2019-06-25T23:31:54.771Z,3.60
2019-06-25T23:34:24.180Z,4.80
2019-06-25T23:36:53.935Z,3.97
2019-06-25T23:39:23.350Z,4.20
2019-06-25T23:41:52.730Z,3.83
2019-06-25T23:44:22.126Z,3.77
2019-06-25T23:46:51.547Z,4.00
2019-06-25T23:49:20.954Z,3.77
2019-06-25T23:51:50.318Z,4.10
2019-06-25T23:54:19.646Z,4.03
2019-06-25T23:56:49.018Z,3.70
2019-06-25T23:59:18.364Z,4.03
